sensor_id;sensor_type;location;lat;lon;timestamp;P1;durP1;ratioP1;P2;durP2;ratioP2
55212;SDS011;41083;52.932;6.674;2022-10-29T00:01:41;5.20;;;0.95;;
55212;SDS011;41083;52.932;6.674;2022-10-29T00:04:07;8.02;;;1.13;;
55212;SDS011;41083;52.932;6.674;2022-10-29T00:06:32;1.55;;;0.52;;
55212;SDS011;41083;52.932;6.674;2022-10-29T00:08:58;2.38;;;0.98;;
55212;SDS011;41083;52.932;6.674;2022-10-29T00:11:23;2.55;;;0.70;;
55212;SDS011;41083;52.932;6.674;2022-10-29T00:13:52;0.90;;;0.43;;
55212;SDS011;41083;52.932;6.674;2022-10-29T00:16:21;3.95;;;0.60;;
55212;SDS011;41083;52.932;6.674;2022-10-29T00:18:48;6.22;;;0.95;;
55212;SDS011;41083;52.932;6.674;2022-10-29T00:21:15;0.90;;;0.50;;
55212;SDS011;41083;52.932;6.674;2022-10-29T00:23:43;5.15;;;0.70;;
55212;SDS011;41083;52.932;6.674;2022-10-29T00:26:09;6.60;;;1.13;;
55212;SDS011;41083;52.932;6.674;2022-10-29T00:28:36;1.35;;;0.55;;
55212;SDS011;41083;52.932;6.674;2022-10-29T00:31:05;12.15;;;0.98;;
55212;SDS011;41083;52.932;6.674;2022-10-29T00:33:32;4.10;;;0.70;;
55212;SDS011;41083;52.932;6.674;2022-10-29T00:36:03;1.30;;;0.70;;
55212;SDS011;41083;52.932;6.674;2022-10-29T00:38:34;4.32;;;0.85;;
55212;SDS011;41083;52.932;6.674;2022-10-29T00:41:00;2.13;;;0.55;;
55212;SDS011;41083;52.932;6.674;2022-10-29T00:43:27;2.45;;;0.60;;
55212;SDS011;41083;52.932;6.674;2022-10-29T00:45:53;2.13;;;0.50;;
55212;SDS011;41083;52.932;6.674;2022-10-29T00:48:22;3.80;;;0.70;;
55212;SDS011;41083;52.932;6.674;2022-10-29T00:50:51;2.88;;;0.70;;
55212;SDS011;41083;52.932;6.674;2022-10-29T00:53:19;2.42;;;0.82;;
55212;SDS011;41083;52.932;6.674;2022-10-29T00:55:48;1.27;;;0.60;;
55212;SDS011;41083;52.932;6.674;2022-10-29T00:58:13;2.47;;;1.10;;
55212;SDS011;41083;52.932;6.674;2022-10-29T01:00:39;4.40;;;0.90;;
55212;SDS011;41083;52.932;6.674;2022-10-29T01:03:05;3.15;;;0.68;;
55212;SDS011;41083;52.932;6.674;2022-10-29T01:05:32;3.55;;;0.60;;
55212;SDS011;41083;52.932;6.674;2022-10-29T01:07:59;3.95;;;1.00;;
55212;SDS011;41083;52.932;6.674;2022-10-29T01:10:35;2.17;;;0.55;;
55212;SDS011;41083;52.932;6.674;2022-10-29T01:15:47;5.40;;;0.93;;
55212;SDS011;41083;52.932;6.674;2022-10-29T01:18:36;2.42;;;0.77;;
55212;SDS011;41083;52.932;6.674;2022-10-29T01:21:30;6.60;;;0.88;;
55212;SDS011;41083;52.932;6.674;2022-10-29T01:36:12;2.50;;;0.68;;
55212;SDS011;41083;52.932;6.674;2022-10-29T01:38:44;2.53;;;0.75;;
55212;SDS011;41083;52.932;6.674;2022-10-29T01:41:24;3.25;;;0.90;;
55212;SDS011;41083;52.932;6.674;2022-10-29T01:46:46;1.88;;;1.15;;
55212;SDS011;41083;52.932;6.674;2022-10-29T01:49:17;2.50;;;0.73;;
55212;SDS011;41083;52.932;6.674;2022-10-29T01:51:48;5.25;;;0.55;;
55212;SDS011;41083;52.932;6.674;2022-10-29T01:54:14;6.20;;;1.15;;
55212;SDS011;41083;52.932;6.674;2022-10-29T01:56:40;2.00;;;0.90;;
55212;SDS011;41083;52.932;6.674;2022-10-29T01:59:07;1.77;;;0.90;;
55212;SDS011;41083;52.932;6.674;2022-10-29T02:01:42;3.53;;;0.95;;
55212;SDS011;41083;52.932;6.674;2022-10-29T02:12:45;6.63;;;1.10;;
55212;SDS011;41083;52.932;6.674;2022-10-29T02:15:24;2.35;;;1.17;;
55212;SDS011;41083;52.932;6.674;2022-10-29T02:17:59;2.67;;;1.15;;
55212;SDS011;41083;52.932;6.674;2022-10-29T02:20:26;2.53;;;1.10;;
55212;SDS011;41083;52.932;6.674;2022-10-29T02:22:52;3.67;;;1.33;;
55212;SDS011;41083;52.932;6.674;2022-10-29T02:25:17;3.30;;;1.25;;
55212;SDS011;41083;52.932;6.674;2022-10-29T02:27:43;1.63;;;0.95;;
55212;SDS011;41083;52.932;6.674;2022-10-29T02:30:09;2.47;;;1.50;;
55212;SDS011;41083;52.932;6.674;2022-10-29T02:32:35;3.00;;;1.42;;
55212;SDS011;41083;52.932;6.674;2022-10-29T02:35:00;2.53;;;1.33;;
55212;SDS011;41083;52.932;6.674;2022-10-29T02:37:26;6.18;;;1.40;;
55212;SDS011;41083;52.932;6.674;2022-10-29T02:39:51;4.07;;;1.20;;
55212;SDS011;41083;52.932;6.674;2022-10-29T02:42:17;3.05;;;1.83;;
55212;SDS011;41083;52.932;6.674;2022-10-29T02:44:43;4.00;;;1.02;;
55212;SDS011;41083;52.932;6.674;2022-10-29T02:47:08;1.95;;;1.13;;
55212;SDS011;41083;52.932;6.674;2022-10-29T02:49:34;3.28;;;1.27;;
55212;SDS011;41083;52.932;6.674;2022-10-29T02:51:59;1.92;;;1.05;;
55212;SDS011;41083;52.932;6.674;2022-10-29T02:54:25;1.92;;;1.15;;
55212;SDS011;41083;52.932;6.674;2022-10-29T02:56:50;3.70;;;1.48;;
55212;SDS011;41083;52.932;6.674;2022-10-29T02:59:16;3.65;;;1.40;;
55212;SDS011;41083;52.932;6.674;2022-10-29T03:01:41;7.00;;;1.88;;
55212;SDS011;41083;52.932;6.674;2022-10-29T03:04:08;3.55;;;1.58;;
55212;SDS011;41083;52.932;6.674;2022-10-29T03:06:35;8.45;;;1.45;;
55212;SDS011;41083;52.932;6.674;2022-10-29T03:09:01;6.10;;;1.80;;
55212;SDS011;41083;52.932;6.674;2022-10-29T03:11:27;1.92;;;0.77;;
55212;SDS011;41083;52.932;6.674;2022-10-29T03:13:52;2.35;;;0.82;;
55212;SDS011;41083;52.932;6.674;2022-10-29T03:16:18;2.60;;;1.30;;
55212;SDS011;41083;52.932;6.674;2022-10-29T03:18:44;3.60;;;1.13;;
55212;SDS011;41083;52.932;6.674;2022-10-29T03:21:09;5.68;;;1.10;;
55212;SDS011;41083;52.932;6.674;2022-10-29T03:23:35;3.08;;;1.60;;
55212;SDS011;41083;52.932;6.674;2022-10-29T03:26:00;3.45;;;1.40;;
55212;SDS011;41083;52.932;6.674;2022-10-29T03:28:26;2.05;;;1.42;;
55212;SDS011;41083;52.932;6.674;2022-10-29T03:30:52;4.30;;;1.80;;
55212;SDS011;41083;52.932;6.674;2022-10-29T03:33:18;5.70;;;1.67;;
55212;SDS011;41083;52.932;6.674;2022-10-29T03:35:43;3.35;;;1.58;;
55212;SDS011;41083;52.932;6.674;2022-10-29T03:38:09;6.95;;;2.00;;
55212;SDS011;41083;52.932;6.674;2022-10-29T03:40:35;4.68;;;1.95;;
55212;SDS011;41083;52.932;6.674;2022-10-29T03:43:00;4.07;;;2.13;;
55212;SDS011;41083;52.932;6.674;2022-10-29T03:45:26;4.68;;;1.77;;
55212;SDS011;41083;52.932;6.674;2022-10-29T03:47:51;3.03;;;1.58;;
55212;SDS011;41083;52.932;6.674;2022-10-29T03:50:17;7.07;;;1.63;;
55212;SDS011;41083;52.932;6.674;2022-10-29T03:52:43;3.05;;;1.70;;
55212;SDS011;41083;52.932;6.674;2022-10-29T03:55:08;9.68;;;2.10;;
55212;SDS011;41083;52.932;6.674;2022-10-29T03:57:34;3.80;;;1.83;;
55212;SDS011;41083;52.932;6.674;2022-10-29T04:00:00;4.50;;;2.17;;
55212;SDS011;41083;52.932;6.674;2022-10-29T04:02:28;5.40;;;1.90;;
55212;SDS011;41083;52.932;6.674;2022-10-29T04:04:54;6.90;;;1.73;;
55212;SDS011;41083;52.932;6.674;2022-10-29T04:07:20;5.18;;;1.95;;
55212;SDS011;41083;52.932;6.674;2022-10-29T04:09:45;4.75;;;2.15;;
55212;SDS011;41083;52.932;6.674;2022-10-29T04:12:11;4.25;;;1.73;;
55212;SDS011;41083;52.932;6.674;2022-10-29T04:14:36;2.58;;;1.60;;
55212;SDS011;41083;52.932;6.674;2022-10-29T04:17:02;3.40;;;1.60;;
55212;SDS011;41083;52.932;6.674;2022-10-29T04:19:28;12.45;;;2.47;;
55212;SDS011;41083;52.932;6.674;2022-10-29T04:21:53;5.10;;;2.25;;
55212;SDS011;41083;52.932;6.674;2022-10-29T04:24:19;4.35;;;2.20;;
55212;SDS011;41083;52.932;6.674;2022-10-29T04:26:44;6.93;;;2.47;;
55212;SDS011;41083;52.932;6.674;2022-10-29T04:29:10;4.80;;;1.90;;
55212;SDS011;41083;52.932;6.674;2022-10-29T04:31:36;3.45;;;1.73;;
55212;SDS011;41083;52.932;6.674;2022-10-29T04:34:02;7.93;;;2.35;;
55212;SDS011;41083;52.932;6.674;2022-10-29T04:36:28;5.85;;;2.22;;
55212;SDS011;41083;52.932;6.674;2022-10-29T04:38:53;6.03;;;1.98;;
55212;SDS011;41083;52.932;6.674;2022-10-29T04:41:19;5.35;;;2.03;;
55212;SDS011;41083;52.932;6.674;2022-10-29T04:43:45;8.73;;;2.40;;
55212;SDS011;41083;52.932;6.674;2022-10-29T04:46:10;6.13;;;2.42;;
55212;SDS011;41083;52.932;6.674;2022-10-29T04:48:36;9.02;;;2.08;;
55212;SDS011;41083;52.932;6.674;2022-10-29T04:51:02;6.45;;;2.45;;
55212;SDS011;41083;52.932;6.674;2022-10-29T04:53:28;4.88;;;1.73;;
55212;SDS011;41083;52.932;6.674;2022-10-29T04:56:00;5.65;;;2.15;;
55212;SDS011;41083;52.932;6.674;2022-10-29T04:58:27;5.20;;;2.10;;
55212;SDS011;41083;52.932;6.674;2022-10-29T05:00:53;5.35;;;2.08;;
55212;SDS011;41083;52.932;6.674;2022-10-29T05:03:24;4.22;;;1.92;;
55212;SDS011;41083;52.932;6.674;2022-10-29T05:05:50;8.60;;;1.83;;
55212;SDS011;41083;52.932;6.674;2022-10-29T05:08:15;3.80;;;1.80;;
55212;SDS011;41083;52.932;6.674;2022-10-29T05:10:42;5.13;;;2.80;;
55212;SDS011;41083;52.932;6.674;2022-10-29T05:13:09;8.48;;;2.55;;
55212;SDS011;41083;52.932;6.674;2022-10-29T05:15:36;4.65;;;2.00;;
55212;SDS011;41083;52.932;6.674;2022-10-29T05:18:02;4.35;;;2.00;;
55212;SDS011;41083;52.932;6.674;2022-10-29T05:20:28;5.25;;;2.60;;
55212;SDS011;41083;52.932;6.674;2022-10-29T05:22:58;6.13;;;1.92;;
55212;SDS011;41083;52.932;6.674;2022-10-29T05:25:24;9.50;;;2.35;;
55212;SDS011;41083;52.932;6.674;2022-10-29T05:27:57;6.63;;;2.55;;
55212;SDS011;41083;52.932;6.674;2022-10-29T05:30:36;7.53;;;3.00;;
55212;SDS011;41083;52.932;6.674;2022-10-29T05:33:06;6.63;;;2.35;;
55212;SDS011;41083;52.932;6.674;2022-10-29T05:35:33;6.43;;;2.47;;
55212;SDS011;41083;52.932;6.674;2022-10-29T05:37:59;10.90;;;4.07;;
55212;SDS011;41083;52.932;6.674;2022-10-29T05:40:25;8.40;;;2.72;;
55212;SDS011;41083;52.932;6.674;2022-10-29T05:42:50;8.40;;;2.67;;
55212;SDS011;41083;52.932;6.674;2022-10-29T05:45:16;5.50;;;2.50;;
55212;SDS011;41083;52.932;6.674;2022-10-29T05:47:42;7.80;;;2.85;;
55212;SDS011;41083;52.932;6.674;2022-10-29T05:50:08;6.18;;;2.45;;
55212;SDS011;41083;52.932;6.674;2022-10-29T05:52:34;5.10;;;2.38;;
55212;SDS011;41083;52.932;6.674;2022-10-29T05:54:59;9.90;;;3.17;;
55212;SDS011;41083;52.932;6.674;2022-10-29T05:57:26;7.15;;;2.20;;
55212;SDS011;41083;52.932;6.674;2022-10-29T05:59:52;7.60;;;2.92;;
55212;SDS011;41083;52.932;6.674;2022-10-29T06:02:18;6.30;;;2.85;;
55212;SDS011;41083;52.932;6.674;2022-10-29T06:04:44;7.63;;;2.97;;
55212;SDS011;41083;52.932;6.674;2022-10-29T06:07:09;8.20;;;2.30;;
55212;SDS011;41083;52.932;6.674;2022-10-29T06:09:35;11.48;;;2.65;;
55212;SDS011;41083;52.932;6.674;2022-10-29T06:12:00;5.63;;;2.25;;
55212;SDS011;41083;52.932;6.674;2022-10-29T06:14:26;6.82;;;3.08;;
55212;SDS011;41083;52.932;6.674;2022-10-29T06:16:52;6.53;;;3.13;;
55212;SDS011;41083;52.932;6.674;2022-10-29T06:19:17;6.28;;;2.67;;
55212;SDS011;41083;52.932;6.674;2022-10-29T06:21:43;8.25;;;3.05;;
55212;SDS011;41083;52.932;6.674;2022-10-29T06:24:09;7.55;;;3.28;;
55212;SDS011;41083;52.932;6.674;2022-10-29T06:26:35;10.40;;;3.15;;
55212;SDS011;41083;52.932;6.674;2022-10-29T06:29:01;9.95;;;3.15;;
55212;SDS011;41083;52.932;6.674;2022-10-29T06:31:28;6.72;;;2.85;;
55212;SDS011;41083;52.932;6.674;2022-10-29T06:33:54;10.63;;;3.38;;
55212;SDS011;41083;52.932;6.674;2022-10-29T06:36:19;6.28;;;2.65;;
55212;SDS011;41083;52.932;6.674;2022-10-29T06:38:45;7.25;;;3.03;;
55212;SDS011;41083;52.932;6.674;2022-10-29T06:41:11;10.30;;;3.30;;
55212;SDS011;41083;52.932;6.674;2022-10-29T06:43:36;9.60;;;3.38;;
55212;SDS011;41083;52.932;6.674;2022-10-29T06:46:02;5.47;;;2.30;;
55212;SDS011;41083;52.932;6.674;2022-10-29T06:48:28;6.53;;;2.90;;
55212;SDS011;41083;52.932;6.674;2022-10-29T06:50:53;6.40;;;3.10;;
55212;SDS011;41083;52.932;6.674;2022-10-29T06:53:19;7.97;;;3.33;;
55212;SDS011;41083;52.932;6.674;2022-10-29T06:55:45;5.57;;;2.75;;
55212;SDS011;41083;52.932;6.674;2022-10-29T06:58:11;11.02;;;4.22;;
55212;SDS011;41083;52.932;6.674;2022-10-29T07:00:38;7.35;;;2.72;;
55212;SDS011;41083;52.932;6.674;2022-10-29T07:03:05;7.40;;;2.85;;
55212;SDS011;41083;52.932;6.674;2022-10-29T07:05:31;5.80;;;3.25;;
55212;SDS011;41083;52.932;6.674;2022-10-29T07:07:58;7.53;;;3.40;;
55212;SDS011;41083;52.932;6.674;2022-10-29T07:10:25;5.55;;;3.10;;
55212;SDS011;41083;52.932;6.674;2022-10-29T07:12:52;6.45;;;3.13;;
55212;SDS011;41083;52.932;6.674;2022-10-29T07:15:18;7.75;;;3.10;;
55212;SDS011;41083;52.932;6.674;2022-10-29T07:17:54;7.10;;;3.15;;
55212;SDS011;41083;52.932;6.674;2022-10-29T07:20:21;8.02;;;3.22;;
55212;SDS011;41083;52.932;6.674;2022-10-29T07:22:46;6.68;;;3.05;;
55212;SDS011;41083;52.932;6.674;2022-10-29T07:25:12;8.68;;;3.72;;
55212;SDS011;41083;52.932;6.674;2022-10-29T07:27:38;4.60;;;2.53;;
55212;SDS011;41083;52.932;6.674;2022-10-29T07:30:03;6.38;;;2.88;;
55212;SDS011;41083;52.932;6.674;2022-10-29T07:32:29;7.45;;;2.88;;
55212;SDS011;41083;52.932;6.674;2022-10-29T07:34:55;5.22;;;2.80;;
55212;SDS011;41083;52.932;6.674;2022-10-29T07:37:20;7.30;;;3.22;;
55212;SDS011;41083;52.932;6.674;2022-10-29T07:39:46;6.90;;;2.95;;
55212;SDS011;41083;52.932;6.674;2022-10-29T07:42:11;6.88;;;3.75;;
55212;SDS011;41083;52.932;6.674;2022-10-29T07:44:37;8.48;;;3.10;;
55212;SDS011;41083;52.932;6.674;2022-10-29T07:47:03;4.70;;;2.65;;
55212;SDS011;41083;52.932;6.674;2022-10-29T07:49:28;6.55;;;2.92;;
55212;SDS011;41083;52.932;6.674;2022-10-29T07:51:54;7.95;;;3.15;;
55212;SDS011;41083;52.932;6.674;2022-10-29T07:54:19;4.80;;;2.72;;
55212;SDS011;41083;52.932;6.674;2022-10-29T07:56:45;5.63;;;2.58;;
55212;SDS011;41083;52.932;6.674;2022-10-29T07:59:10;5.85;;;2.85;;
55212;SDS011;41083;52.932;6.674;2022-10-29T08:01:38;6.32;;;2.70;;
55212;SDS011;41083;52.932;6.674;2022-10-29T08:04:04;7.40;;;2.97;;
55212;SDS011;41083;52.932;6.674;2022-10-29T08:06:29;5.10;;;2.70;;
55212;SDS011;41083;52.932;6.674;2022-10-29T08:08:56;7.00;;;3.28;;
55212;SDS011;41083;52.932;6.674;2022-10-29T08:11:21;10.18;;;2.80;;
55212;SDS011;41083;52.932;6.674;2022-10-29T08:13:47;7.50;;;2.95;;
55212;SDS011;41083;52.932;6.674;2022-10-29T08:16:13;7.68;;;3.22;;
55212;SDS011;41083;52.932;6.674;2022-10-29T08:18:39;6.82;;;2.80;;
55212;SDS011;41083;52.932;6.674;2022-10-29T08:21:04;6.22;;;3.05;;
55212;SDS011;41083;52.932;6.674;2022-10-29T08:23:30;5.88;;;2.83;;
55212;SDS011;41083;52.932;6.674;2022-10-29T08:25:56;5.03;;;2.28;;
55212;SDS011;41083;52.932;6.674;2022-10-29T08:28:22;7.78;;;3.00;;
55212;SDS011;41083;52.932;6.674;2022-10-29T08:30:48;5.72;;;2.67;;
55212;SDS011;41083;52.932;6.674;2022-10-29T08:33:14;7.28;;;3.30;;
55212;SDS011;41083;52.932;6.674;2022-10-29T08:35:40;6.05;;;2.78;;
55212;SDS011;41083;52.932;6.674;2022-10-29T08:38:05;5.13;;;2.80;;
55212;SDS011;41083;52.932;6.674;2022-10-29T08:45:53;4.03;;;2.13;;
55212;SDS011;41083;52.932;6.674;2022-10-29T08:51:21;6.80;;;2.97;;
55212;SDS011;41083;52.932;6.674;2022-10-29T08:53:50;8.23;;;2.97;;
55212;SDS011;41083;52.932;6.674;2022-10-29T08:56:18;9.55;;;2.95;;
55212;SDS011;41083;52.932;6.674;2022-10-29T08:58:54;6.75;;;2.97;;
55212;SDS011;41083;52.932;6.674;2022-10-29T09:01:25;6.10;;;2.67;;
55212;SDS011;41083;52.932;6.674;2022-10-29T09:03:51;5.60;;;2.30;;
55212;SDS011;41083;52.932;6.674;2022-10-29T09:14:38;5.60;;;2.55;;
55212;SDS011;41083;52.932;6.674;2022-10-29T09:22:21;8.43;;;2.72;;
55212;SDS011;41083;52.932;6.674;2022-10-29T09:27:48;4.82;;;2.85;;
55212;SDS011;41083;52.932;6.674;2022-10-29T09:30:30;6.95;;;2.42;;
55212;SDS011;41083;52.932;6.674;2022-10-29T09:33:07;5.28;;;3.03;;
55212;SDS011;41083;52.932;6.674;2022-10-29T09:35:51;14.20;;;3.20;;
55212;SDS011;41083;52.932;6.674;2022-10-29T09:38:23;7.47;;;2.70;;
55212;SDS011;41083;52.932;6.674;2022-10-29T09:40:53;9.85;;;2.90;;
55212;SDS011;41083;52.932;6.674;2022-10-29T09:43:38;5.13;;;2.90;;
55212;SDS011;41083;52.932;6.674;2022-10-29T09:48:39;8.15;;;3.13;;
55212;SDS011;41083;52.932;6.674;2022-10-29T09:51:25;6.50;;;2.85;;
55212;SDS011;41083;52.932;6.674;2022-10-29T09:54:13;5.05;;;2.35;;
55212;SDS011;41083;52.932;6.674;2022-10-29T09:56:39;5.78;;;2.63;;
55212;SDS011;41083;52.932;6.674;2022-10-29T10:01:41;10.90;;;2.97;;
55212;SDS011;41083;52.932;6.674;2022-10-29T10:04:11;5.75;;;2.92;;
55212;SDS011;41083;52.932;6.674;2022-10-29T10:09:51;5.85;;;2.90;;
55212;SDS011;41083;52.932;6.674;2022-10-29T10:12:23;8.57;;;3.28;;
55212;SDS011;41083;52.932;6.674;2022-10-29T10:15:00;6.13;;;2.67;;
55212;SDS011;41083;52.932;6.674;2022-10-29T10:17:30;8.32;;;2.83;;
55212;SDS011;41083;52.932;6.674;2022-10-29T10:20:27;7.10;;;3.22;;
55212;SDS011;41083;52.932;6.674;2022-10-29T10:22:57;7.80;;;3.45;;
55212;SDS011;41083;52.932;6.674;2022-10-29T10:25:30;9.20;;;3.08;;
55212;SDS011;41083;52.932;6.674;2022-10-29T10:28:13;7.03;;;3.00;;
55212;SDS011;41083;52.932;6.674;2022-10-29T10:30:41;7.05;;;2.70;;
55212;SDS011;41083;52.932;6.674;2022-10-29T10:33:21;6.55;;;3.35;;
55212;SDS011;41083;52.932;6.674;2022-10-29T10:35:50;7.55;;;2.83;;
55212;SDS011;41083;52.932;6.674;2022-10-29T10:38:16;9.20;;;3.33;;
55212;SDS011;41083;52.932;6.674;2022-10-29T10:40:43;6.38;;;3.08;;
55212;SDS011;41083;52.932;6.674;2022-10-29T10:43:24;9.82;;;2.50;;
55212;SDS011;41083;52.932;6.674;2022-10-29T10:45:55;5.38;;;2.50;;
55212;SDS011;41083;52.932;6.674;2022-10-29T10:48:24;5.20;;;2.22;;
55212;SDS011;41083;52.932;6.674;2022-10-29T10:51:06;4.82;;;2.42;;
55212;SDS011;41083;52.932;6.674;2022-10-29T10:53:42;7.25;;;2.42;;
55212;SDS011;41083;52.932;6.674;2022-10-29T10:56:14;8.82;;;3.78;;
55212;SDS011;41083;52.932;6.674;2022-10-29T10:58:44;6.82;;;3.55;;
55212;SDS011;41083;52.932;6.674;2022-10-29T11:01:15;9.23;;;3.38;;
55212;SDS011;41083;52.932;6.674;2022-10-29T11:07:05;7.93;;;2.80;;
55212;SDS011;41083;52.932;6.674;2022-10-29T11:09:38;10.13;;;3.70;;
55212;SDS011;41083;52.932;6.674;2022-10-29T11:12:12;4.55;;;2.85;;
55212;SDS011;41083;52.932;6.674;2022-10-29T11:17:54;7.82;;;3.17;;
55212;SDS011;41083;52.932;6.674;2022-10-29T11:20:34;5.43;;;2.90;;
55212;SDS011;41083;52.932;6.674;2022-10-29T11:26:19;10.95;;;3.10;;
55212;SDS011;41083;52.932;6.674;2022-10-29T11:28:47;6.75;;;2.88;;
55212;SDS011;41083;52.932;6.674;2022-10-29T11:31:21;6.10;;;3.05;;
55212;SDS011;41083;52.932;6.674;2022-10-29T11:34:14;7.28;;;2.58;;
55212;SDS011;41083;52.932;6.674;2022-10-29T11:36:54;7.32;;;3.30;;
55212;SDS011;41083;52.932;6.674;2022-10-29T11:39:26;5.53;;;3.20;;
55212;SDS011;41083;52.932;6.674;2022-10-29T11:41:58;8.98;;;3.40;;
55212;SDS011;41083;52.932;6.674;2022-10-29T11:44:25;5.55;;;3.03;;
55212;SDS011;41083;52.932;6.674;2022-10-29T11:53:05;7.65;;;3.25;;
55212;SDS011;41083;52.932;6.674;2022-10-29T11:55:39;7.53;;;3.38;;
55212;SDS011;41083;52.932;6.674;2022-10-29T12:01:03;7.63;;;3.40;;
55212;SDS011;41083;52.932;6.674;2022-10-29T12:03:58;11.65;;;4.03;;
55212;SDS011;41083;52.932;6.674;2022-10-29T12:06:45;8.23;;;3.33;;
55212;SDS011;41083;52.932;6.674;2022-10-29T12:15:17;8.63;;;3.45;;
55212;SDS011;41083;52.932;6.674;2022-10-29T12:17:52;6.70;;;3.20;;
55212;SDS011;41083;52.932;6.674;2022-10-29T12:23:12;5.70;;;2.90;;
55212;SDS011;41083;52.932;6.674;2022-10-29T12:26:04;5.40;;;3.40;;
55212;SDS011;41083;52.932;6.674;2022-10-29T12:28:43;4.60;;;2.75;;
55212;SDS011;41083;52.932;6.674;2022-10-29T12:31:22;6.18;;;3.00;;
55212;SDS011;41083;52.932;6.674;2022-10-29T12:34:12;5.10;;;3.15;;
55212;SDS011;41083;52.932;6.674;2022-10-29T12:36:58;6.93;;;3.58;;
55212;SDS011;41083;52.932;6.674;2022-10-29T12:39:31;5.85;;;2.35;;
55212;SDS011;41083;52.932;6.674;2022-10-29T12:42:01;6.78;;;2.90;;
55212;SDS011;41083;52.932;6.674;2022-10-29T12:55:42;7.25;;;2.90;;
55212;SDS011;41083;52.932;6.674;2022-10-29T13:01:53;9.30;;;2.90;;
55212;SDS011;41083;52.932;6.674;2022-10-29T13:11:46;9.48;;;3.53;;
55212;SDS011;41083;52.932;6.674;2022-10-29T13:16:52;7.20;;;3.35;;
55212;SDS011;41083;52.932;6.674;2022-10-29T13:19:22;9.07;;;3.70;;
55212;SDS011;41083;52.932;6.674;2022-10-29T13:24:40;6.53;;;3.25;;
55212;SDS011;41083;52.932;6.674;2022-10-29T13:29:41;8.30;;;3.60;;
55212;SDS011;41083;52.932;6.674;2022-10-29T13:32:34;8.32;;;3.75;;
55212;SDS011;41083;52.932;6.674;2022-10-29T13:35:02;10.25;;;3.78;;
55212;SDS011;41083;52.932;6.674;2022-10-29T13:37:47;8.35;;;3.30;;
55212;SDS011;41083;52.932;6.674;2022-10-29T13:43:02;6.78;;;3.35;;
55212;SDS011;41083;52.932;6.674;2022-10-29T13:45:33;7.43;;;3.38;;
55212;SDS011;41083;52.932;6.674;2022-10-29T13:48:13;7.90;;;3.15;;
55212;SDS011;41083;52.932;6.674;2022-10-29T13:50:51;7.97;;;3.28;;
55212;SDS011;41083;52.932;6.674;2022-10-29T13:53:21;9.77;;;4.15;;
55212;SDS011;41083;52.932;6.674;2022-10-29T13:55:52;9.43;;;3.63;;
55212;SDS011;41083;52.932;6.674;2022-10-29T13:58:25;10.45;;;3.97;;
55212;SDS011;41083;52.932;6.674;2022-10-29T14:01:00;6.95;;;3.53;;
55212;SDS011;41083;52.932;6.674;2022-10-29T14:03:34;8.00;;;3.92;;
55212;SDS011;41083;52.932;6.674;2022-10-29T14:06:30;5.68;;;2.70;;
55212;SDS011;41083;52.932;6.674;2022-10-29T14:09:05;13.13;;;4.75;;
55212;SDS011;41083;52.932;6.674;2022-10-29T14:11:37;8.18;;;3.80;;
55212;SDS011;41083;52.932;6.674;2022-10-29T14:14:13;6.47;;;3.33;;
55212;SDS011;41083;52.932;6.674;2022-10-29T14:16:49;10.27;;;3.13;;
55212;SDS011;41083;52.932;6.674;2022-10-29T14:19:18;7.78;;;3.40;;
55212;SDS011;41083;52.932;6.674;2022-10-29T14:21:45;7.82;;;3.08;;
55212;SDS011;41083;52.932;6.674;2022-10-29T14:24:12;7.10;;;3.35;;
55212;SDS011;41083;52.932;6.674;2022-10-29T14:26:41;8.90;;;3.75;;
55212;SDS011;41083;52.932;6.674;2022-10-29T14:29:12;6.75;;;2.90;;
55212;SDS011;41083;52.932;6.674;2022-10-29T14:31:42;6.20;;;3.08;;
55212;SDS011;41083;52.932;6.674;2022-10-29T14:34:12;7.63;;;3.50;;
55212;SDS011;41083;52.932;6.674;2022-10-29T14:36:47;8.45;;;3.28;;
55212;SDS011;41083;52.932;6.674;2022-10-29T14:41:43;8.38;;;3.78;;
55212;SDS011;41083;52.932;6.674;2022-10-29T14:44:25;8.75;;;3.15;;
55212;SDS011;41083;52.932;6.674;2022-10-29T14:49:27;7.43;;;3.22;;
55212;SDS011;41083;52.932;6.674;2022-10-29T14:52:55;8.48;;;2.97;;
55212;SDS011;41083;52.932;6.674;2022-10-29T14:55:15;7.00;;;3.10;;
55212;SDS011;41083;52.932;6.674;2022-10-29T14:57:49;9.18;;;3.50;;
55212;SDS011;41083;52.932;6.674;2022-10-29T15:00:26;10.35;;;3.25;;
55212;SDS011;41083;52.932;6.674;2022-10-29T15:02:53;6.68;;;2.92;;
55212;SDS011;41083;52.932;6.674;2022-10-29T15:05:23;7.53;;;3.38;;
55212;SDS011;41083;52.932;6.674;2022-10-29T15:10:51;9.05;;;2.80;;
55212;SDS011;41083;52.932;6.674;2022-10-29T15:16:04;6.68;;;3.53;;
55212;SDS011;41083;52.932;6.674;2022-10-29T15:18:33;9.02;;;3.28;;
55212;SDS011;41083;52.932;6.674;2022-10-29T15:21:01;10.40;;;3.75;;
55212;SDS011;41083;52.932;6.674;2022-10-29T15:23:32;5.72;;;2.58;;
55212;SDS011;41083;52.932;6.674;2022-10-29T15:26:01;7.82;;;3.38;;
55212;SDS011;41083;52.932;6.674;2022-10-29T15:28:30;14.38;;;3.53;;
55212;SDS011;41083;52.932;6.674;2022-10-29T15:31:02;6.03;;;2.58;;
55212;SDS011;41083;52.932;6.674;2022-10-29T15:33:28;6.47;;;2.80;;
55212;SDS011;41083;52.932;6.674;2022-10-29T15:35:56;8.98;;;3.40;;
55212;SDS011;41083;52.932;6.674;2022-10-29T15:43:51;9.15;;;3.15;;
55212;SDS011;41083;52.932;6.674;2022-10-29T15:46:25;9.02;;;3.20;;
55212;SDS011;41083;52.932;6.674;2022-10-29T15:48:58;10.65;;;3.33;;
55212;SDS011;41083;52.932;6.674;2022-10-29T15:51:27;7.25;;;3.03;;
55212;SDS011;41083;52.932;6.674;2022-10-29T15:53:54;11.52;;;3.53;;
55212;SDS011;41083;52.932;6.674;2022-10-29T15:56:21;9.55;;;3.50;;
55212;SDS011;41083;52.932;6.674;2022-10-29T15:58:48;9.20;;;3.92;;
55212;SDS011;41083;52.932;6.674;2022-10-29T16:01:14;7.22;;;3.22;;
55212;SDS011;41083;52.932;6.674;2022-10-29T16:03:41;9.15;;;3.53;;
55212;SDS011;41083;52.932;6.674;2022-10-29T16:06:07;8.02;;;3.53;;
55212;SDS011;41083;52.932;6.674;2022-10-29T16:11:10;15.63;;;7.28;;
55212;SDS011;41083;52.932;6.674;2022-10-29T16:13:37;25.05;;;13.40;;
55212;SDS011;41083;52.932;6.674;2022-10-29T16:16:03;22.23;;;10.10;;
55212;SDS011;41083;52.932;6.674;2022-10-29T16:18:36;8.27;;;4.75;;
55212;SDS011;41083;52.932;6.674;2022-10-29T16:21:03;6.57;;;3.47;;
55212;SDS011;41083;52.932;6.674;2022-10-29T16:23:35;7.28;;;2.85;;
55212;SDS011;41083;52.932;6.674;2022-10-29T16:26:02;11.63;;;3.92;;
55212;SDS011;41083;52.932;6.674;2022-10-29T16:28:28;8.20;;;4.22;;
55212;SDS011;41083;52.932;6.674;2022-10-29T16:30:54;6.25;;;3.35;;
55212;SDS011;41083;52.932;6.674;2022-10-29T16:33:23;9.32;;;4.35;;
55212;SDS011;41083;52.932;6.674;2022-10-29T16:35:49;7.50;;;3.75;;
55212;SDS011;41083;52.932;6.674;2022-10-29T16:38:14;8.20;;;3.38;;
55212;SDS011;41083;52.932;6.674;2022-10-29T16:40:43;9.35;;;4.07;;
55212;SDS011;41083;52.932;6.674;2022-10-29T16:43:09;6.15;;;3.22;;
55212;SDS011;41083;52.932;6.674;2022-10-29T16:45:35;7.00;;;3.70;;
55212;SDS011;41083;52.932;6.674;2022-10-29T16:48:01;12.73;;;4.78;;
55212;SDS011;41083;52.932;6.674;2022-10-29T16:50:31;7.00;;;3.58;;
55212;SDS011;41083;52.932;6.674;2022-10-29T16:53:07;6.82;;;3.35;;
55212;SDS011;41083;52.932;6.674;2022-10-29T16:55:37;6.10;;;2.80;;
55212;SDS011;41083;52.932;6.674;2022-10-29T16:58:10;7.95;;;2.95;;
55212;SDS011;41083;52.932;6.674;2022-10-29T17:00:37;8.23;;;3.38;;
55212;SDS011;41083;52.932;6.674;2022-10-29T17:03:03;5.97;;;3.08;;
55212;SDS011;41083;52.932;6.674;2022-10-29T17:05:29;7.55;;;2.70;;
55212;SDS011;41083;52.932;6.674;2022-10-29T17:07:58;6.20;;;3.20;;
55212;SDS011;41083;52.932;6.674;2022-10-29T17:10:24;7.43;;;4.00;;
55212;SDS011;41083;52.932;6.674;2022-10-29T17:12:49;10.93;;;4.75;;
55212;SDS011;41083;52.932;6.674;2022-10-29T17:15:15;10.07;;;3.85;;
55212;SDS011;41083;52.932;6.674;2022-10-29T17:17:41;12.07;;;4.93;;